sensor_id;sensor_type;location;lat;lon;timestamp;temperature;humidity
4366;DHT22;2196;47.422;9.656;2023-04-16T00:02:11;6.60;99.90
4366;DHT22;2196;47.422;9.656;2023-04-16T00:04:38;6.50;99.90
4366;DHT22;2196;47.422;9.656;2023-04-16T00:07:05;6.50;99.90
4366;DHT22;2196;47.422;9.656;2023-04-16T00:09:32;6.50;99.90
4366;DHT22;2196;47.422;9.656;2023-04-16T00:12:01;6.50;99.90
4366;DHT22;2196;47.422;9.656;2023-04-16T00:14:28;6.50;99.90
4366;DHT22;2196;47.422;9.656;2023-04-16T00:16:56;6.50;99.90
4366;DHT22;2196;47.422;9.656;2023-04-16T00:19:23;6.50;99.90
4366;DHT22;2196;47.422;9.656;2023-04-16T00:21:50;6.40;99.90
4366;DHT22;2196;47.422;9.656;2023-04-16T00:24:17;6.40;99.90
4366;DHT22;2196;47.422;9.656;2023-04-16T00:26:44;6.50;99.90
4366;DHT22;2196;47.422;9.656;2023-04-16T00:29:12;6.50;99.90
4366;DHT22;2196;47.422;9.656;2023-04-16T00:31:39;6.50;99.90
4366;DHT22;2196;47.422;9.656;2023-04-16T00:34:06;6.50;99.90
4366;DHT22;2196;47.422;9.656;2023-04-16T00:36:33;6.40;99.90
4366;DHT22;2196;47.422;9.656;2023-04-16T00:39:00;6.40;99.90
4366;DHT22;2196;47.422;9.656;2023-04-16T00:41:27;6.40;99.90
4366;DHT22;2196;47.422;9.656;2023-04-16T00:43:54;6.30;99.90
4366;DHT22;2196;47.422;9.656;2023-04-16T00:46:23;6.30;99.90
4366;DHT22;2196;47.422;9.656;2023-04-16T00:48:50;6.40;99.90
4366;DHT22;2196;47.422;9.656;2023-04-16T00:51:18;6.40;99.90
4366;DHT22;2196;47.422;9.656;2023-04-16T00:53:46;6.40;99.90
4366;DHT22;2196;47.422;9.656;2023-04-16T00:56:13;6.50;99.90
4366;DHT22;2196;47.422;9.656;2023-04-16T00:58:40;6.40;99.90
4366;DHT22;2196;47.422;9.656;2023-04-16T01:01:07;6.50;99.90
4366;DHT22;2196;47.422;9.656;2023-04-16T01:03:44;6.40;99.90
4366;DHT22;2196;47.422;9.656;2023-04-16T01:06:11;6.40;99.90
4366;DHT22;2196;47.422;9.656;2023-04-16T01:08:38;6.40;99.90
4366;DHT22;2196;47.422;9.656;2023-04-16T01:11:06;6.40;99.90
4366;DHT22;2196;47.422;9.656;2023-04-16T01:13:35;6.40;99.90
4366;DHT22;2196;47.422;9.656;2023-04-16T01:16:04;6.40;99.90
4366;DHT22;2196;47.422;9.656;2023-04-16T01:18:32;6.40;99.90
4366;DHT22;2196;47.422;9.656;2023-04-16T01:21:01;6.30;99.90
4366;DHT22;2196;47.422;9.656;2023-04-16T01:23:28;6.30;99.90
4366;DHT22;2196;47.422;9.656;2023-04-16T01:25:56;6.20;99.90
4366;DHT22;2196;47.422;9.656;2023-04-16T01:28:23;6.30;99.90
4366;DHT22;2196;47.422;9.656;2023-04-16T01:30:50;6.30;99.90
4366;DHT22;2196;47.422;9.656;2023-04-16T01:33:17;6.30;99.90
4366;DHT22;2196;47.422;9.656;2023-04-16T01:35:45;6.30;99.90
4366;DHT22;2196;47.422;9.656;2023-04-16T01:38:13;6.30;99.90
4366;DHT22;2196;47.422;9.656;2023-04-16T01:40:40;6.20;99.90
4366;DHT22;2196;47.422;9.656;2023-04-16T01:43:07;6.20;99.90
4366;DHT22;2196;47.422;9.656;2023-04-16T01:45:34;6.20;99.90
4366;DHT22;2196;47.422;9.656;2023-04-16T01:48:02;6.20;99.90
4366;DHT22;2196;47.422;9.656;2023-04-16T01:50:29;6.20;99.90
4366;DHT22;2196;47.422;9.656;2023-04-16T01:52:56;6.20;99.90
4366;DHT22;2196;47.422;9.656;2023-04-16T01:55:25;6.20;99.90
4366;DHT22;2196;47.422;9.656;2023-04-16T01:57:52;6.20;99.90
4366;DHT22;2196;47.422;9.656;2023-04-16T02:00:19;6.20;99.90
4366;DHT22;2196;47.422;9.656;2023-04-16T02:02:46;6.20;99.90
4366;DHT22;2196;47.422;9.656;2023-04-16T02:05:14;6.10;99.90
4366;DHT22;2196;47.422;9.656;2023-04-16T02:07:41;6.10;99.90
4366;DHT22;2196;47.422;9.656;2023-04-16T02:10:09;6.00;99.90
4366;DHT22;2196;47.422;9.656;2023-04-16T02:12:37;6.00;99.90
4366;DHT22;2196;47.422;9.656;2023-04-16T02:15:05;6.00;99.90
4366;DHT22;2196;47.422;9.656;2023-04-16T02:17:32;6.00;99.90
4366;DHT22;2196;47.422;9.656;2023-04-16T02:19:59;6.00;99.90
4366;DHT22;2196;47.422;9.656;2023-04-16T02:22:28;6.00;99.90
4366;DHT22;2196;47.422;9.656;2023-04-16T02:24:55;6.10;99.90
4366;DHT22;2196;47.422;9.656;2023-04-16T02:27:22;6.10;99.90
4366;DHT22;2196;47.422;9.656;2023-04-16T02:29:50;6.10;99.90
4366;DHT22;2196;47.422;9.656;2023-04-16T02:32:17;6.00;99.90
4366;DHT22;2196;47.422;9.656;2023-04-16T02:34:44;6.00;99.90
4366;DHT22;2196;47.422;9.656;2023-04-16T02:37:11;6.00;99.90
4366;DHT22;2196;47.422;9.656;2023-04-16T02:39:39;6.00;99.90
4366;DHT22;2196;47.422;9.656;2023-04-16T02:42:07;6.00;99.90
4366;DHT22;2196;47.422;9.656;2023-04-16T02:44:34;5.90;99.90
4366;DHT22;2196;47.422;9.656;2023-04-16T02:47:02;5.90;99.90
4366;DHT22;2196;47.422;9.656;2023-04-16T02:49:29;5.90;99.90
4366;DHT22;2196;47.422;9.656;2023-04-16T02:51:56;5.90;99.90
4366;DHT22;2196;47.422;9.656;2023-04-16T02:54:24;5.90;99.90
4366;DHT22;2196;47.422;9.656;2023-04-16T02:56:50;5.90;99.90
4366;DHT22;2196;47.422;9.656;2023-04-16T02:59:17;5.90;99.90
4366;DHT22;2196;47.422;9.656;2023-04-16T03:01:44;5.90;99.90
4366;DHT22;2196;47.422;9.656;2023-04-16T03:04:13;5.90;99.90
4366;DHT22;2196;47.422;9.656;2023-04-16T03:06:40;5.90;99.90
4366;DHT22;2196;47.422;9.656;2023-04-16T03:09:07;5.90;99.90
4366;DHT22;2196;47.422;9.656;2023-04-16T03:11:34;5.90;99.90
4366;DHT22;2196;47.422;9.656;2023-04-16T03:14:01;5.90;99.90
4366;DHT22;2196;47.422;9.656;2023-04-16T03:16:28;5.90;99.90
4366;DHT22;2196;47.422;9.656;2023-04-16T03:18:56;5.90;99.90
4366;DHT22;2196;47.422;9.656;2023-04-16T03:21:24;5.90;99.90
4366;DHT22;2196;47.422;9.656;2023-04-16T03:23:52;5.90;99.90
4366;DHT22;2196;47.422;9.656;2023-04-16T03:26:20;5.80;99.90
4366;DHT22;2196;47.422;9.656;2023-04-16T03:28:47;5.80;99.90
4366;DHT22;2196;47.422;9.656;2023-04-16T03:31:14;5.80;99.90
4366;DHT22;2196;47.422;9.656;2023-04-16T03:33:41;5.80;99.90
4366;DHT22;2196;47.422;9.656;2023-04-16T03:36:08;5.80;99.90
4366;DHT22;2196;47.422;9.656;2023-04-16T03:38:37;5.90;99.90
4366;DHT22;2196;47.422;9.656;2023-04-16T03:41:07;5.80;99.90
4366;DHT22;2196;47.422;9.656;2023-04-16T03:43:34;5.80;99.90
4366;DHT22;2196;47.422;9.656;2023-04-16T03:46:01;5.70;99.90
4366;DHT22;2196;47.422;9.656;2023-04-16T03:48:28;5.70;99.90
4366;DHT22;2196;47.422;9.656;2023-04-16T03:50:55;5.70;99.90
4366;DHT22;2196;47.422;9.656;2023-04-16T03:53:22;5.70;99.90
4366;DHT22;2196;47.422;9.656;2023-04-16T03:55:51;5.80;99.90
4366;DHT22;2196;47.422;9.656;2023-04-16T03:58:18;5.80;99.90
4366;DHT22;2196;47.422;9.656;2023-04-16T04:00:45;5.70;99.90
4366;DHT22;2196;47.422;9.656;2023-04-16T04:03:13;5.50;99.90
4366;DHT22;2196;47.422;9.656;2023-04-16T04:05:41;5.70;99.90
4366;DHT22;2196;47.422;9.656;2023-04-16T04:08:09;5.70;99.90
4366;DHT22;2196;47.422;9.656;2023-04-16T04:10:36;5.70;99.90
4366;DHT22;2196;47.422;9.656;2023-04-16T04:13:05;5.70;99.90
4366;DHT22;2196;47.422;9.656;2023-04-16T04:15:32;5.70;99.90
4366;DHT22;2196;47.422;9.656;2023-04-16T04:18:00;5.70;99.90
4366;DHT22;2196;47.422;9.656;2023-04-16T04:20:27;5.70;99.90
4366;DHT22;2196;47.422;9.656;2023-04-16T04:22:54;5.70;99.90
4366;DHT22;2196;47.422;9.656;2023-04-16T04:25:21;5.70;99.90
4366;DHT22;2196;47.422;9.656;2023-04-16T04:27:48;5.70;99.90
4366;DHT22;2196;47.422;9.656;2023-04-16T04:30:17;5.70;99.90
4366;DHT22;2196;47.422;9.656;2023-04-16T04:32:44;5.70;99.90
4366;DHT22;2196;47.422;9.656;2023-04-16T04:35:11;5.70;99.90
4366;DHT22;2196;47.422;9.656;2023-04-16T04:37:41;5.60;99.90
4366;DHT22;2196;47.422;9.656;2023-04-16T04:40:09;5.60;99.90
4366;DHT22;2196;47.422;9.656;2023-04-16T04:42:37;5.60;99.90
4366;DHT22;2196;47.422;9.656;2023-04-16T04:45:05;5.60;99.90
4366;DHT22;2196;47.422;9.656;2023-04-16T04:47:37;5.60;99.90
4366;DHT22;2196;47.422;9.656;2023-04-16T04:50:05;5.60;99.90
4366;DHT22;2196;47.422;9.656;2023-04-16T04:52:32;5.60;99.90
4366;DHT22;2196;47.422;9.656;2023-04-16T04:54:59;5.60;99.90
4366;DHT22;2196;47.422;9.656;2023-04-16T04:57:26;5.60;99.90
4366;DHT22;2196;47.422;9.656;2023-04-16T04:59:53;5.70;99.90
4366;DHT22;2196;47.422;9.656;2023-04-16T05:02:20;5.60;99.90
4366;DHT22;2196;47.422;9.656;2023-04-16T05:04:49;5.60;99.90
4366;DHT22;2196;47.422;9.656;2023-04-16T05:07:16;5.60;99.90
4366;DHT22;2196;47.422;9.656;2023-04-16T05:09:43;5.60;99.90
4366;DHT22;2196;47.422;9.656;2023-04-16T05:12:10;5.60;99.90
4366;DHT22;2196;47.422;9.656;2023-04-16T05:14:37;5.60;99.90
4366;DHT22;2196;47.422;9.656;2023-04-16T05:17:04;5.70;99.90
4366;DHT22;2196;47.422;9.656;2023-04-16T05:19:32;5.70;99.90
4366;DHT22;2196;47.422;9.656;2023-04-16T05:22:01;5.70;99.90
4366;DHT22;2196;47.422;9.656;2023-04-16T05:24:28;5.70;99.90
4366;DHT22;2196;47.422;9.656;2023-04-16T05:26:56;5.70;99.90
4366;DHT22;2196;47.422;9.656;2023-04-16T05:29:23;5.70;99.90
4366;DHT22;2196;47.422;9.656;2023-04-16T05:31:51;5.70;99.90
4366;DHT22;2196;47.422;9.656;2023-04-16T05:34:19;5.80;99.90
4366;DHT22;2196;47.422;9.656;2023-04-16T05:36:46;5.80;99.90
4366;DHT22;2196;47.422;9.656;2023-04-16T05:39:15;5.80;99.90
4366;DHT22;2196;47.422;9.656;2023-04-16T05:41:43;5.70;99.90
4366;DHT22;2196;47.422;9.656;2023-04-16T05:44:10;5.70;99.90
4366;DHT22;2196;47.422;9.656;2023-04-16T05:46:37;5.60;99.90
4366;DHT22;2196;47.422;9.656;2023-04-16T05:49:04;5.70;99.90
4366;DHT22;2196;47.422;9.656;2023-04-16T05:51:31;5.70;99.90
4366;DHT22;2196;47.422;9.656;2023-04-16T05:53:58;5.70;99.90
4366;DHT22;2196;47.422;9.656;2023-04-16T05:56:26;5.80;99.90
4366;DHT22;2196;47.422;9.656;2023-04-16T05:58:53;5.70;99.90
4366;DHT22;2196;47.422;9.656;2023-04-16T06:01:21;5.60;99.90
4366;DHT22;2196;47.422;9.656;2023-04-16T06:03:48;5.60;99.90
4366;DHT22;2196;47.422;9.656;2023-04-16T06:06:15;5.60;99.90
4366;DHT22;2196;47.422;9.656;2023-04-16T06:08:42;5.70;99.90
4366;DHT22;2196;47.422;9.656;2023-04-16T06:11:09;5.70;99.90
4366;DHT22;2196;47.422;9.656;2023-04-16T06:13:41;5.70;99.90
4366;DHT22;2196;47.422;9.656;2023-04-16T06:16:08;5.70;99.90
4366;DHT22;2196;47.422;9.656;2023-04-16T06:18:35;5.70;99.90
4366;DHT22;2196;47.422;9.656;2023-04-16T06:21:03;5.70;99.90
4366;DHT22;2196;47.422;9.656;2023-04-16T06:23:30;5.80;99.90
4366;DHT22;2196;47.422;9.656;2023-04-16T06:25:57;5.80;99.90
4366;DHT22;2196;47.422;9.656;2023-04-16T06:28:24;5.90;99.90
4366;DHT22;2196;47.422;9.656;2023-04-16T06:30:53;5.90;99.90
4366;DHT22;2196;47.422;9.656;2023-04-16T06:33:20;5.90;99.90
4366;DHT22;2196;47.422;9.656;2023-04-16T06:35:47;5.90;99.90
4366;DHT22;2196;47.422;9.656;2023-04-16T06:38:15;5.90;99.90
4366;DHT22;2196;47.422;9.656;2023-04-16T06:40:42;6.00;99.90
4366;DHT22;2196;47.422;9.656;2023-04-16T06:43:09;6.00;99.90
4366;DHT22;2196;47.422;9.656;2023-04-16T06:45:36;6.00;99.90
4366;DHT22;2196;47.422;9.656;2023-04-16T06:48:05;5.90;99.90
4366;DHT22;2196;47.422;9.656;2023-04-16T06:50:32;6.00;99.90
4366;DHT22;2196;47.422;9.656;2023-04-16T06:52:59;6.00;99.90
4366;DHT22;2196;47.422;9.656;2023-04-16T06:55:26;6.10;99.90
4366;DHT22;2196;47.422;9.656;2023-04-16T06:57:53;6.10;99.90
4366;DHT22;2196;47.422;9.656;2023-04-16T07:00:20;6.10;99.90
4366;DHT22;2196;47.422;9.656;2023-04-16T07:02:47;6.10;99.90
4366;DHT22;2196;47.422;9.656;2023-04-16T07:05:15;6.10;99.90
4366;DHT22;2196;47.422;9.656;2023-04-16T07:07:42;6.20;99.90
4366;DHT22;2196;47.422;9.656;2023-04-16T07:10:09;6.20;99.90
4366;DHT22;2196;47.422;9.656;2023-04-16T07:12:36;6.20;99.90
4366;DHT22;2196;47.422;9.656;2023-04-16T07:15:05;6.30;99.90
4366;DHT22;2196;47.422;9.656;2023-04-16T07:17:32;6.30;99.90
4366;DHT22;2196;47.422;9.656;2023-04-16T07:19:59;6.30;99.90
4366;DHT22;2196;47.422;9.656;2023-04-16T07:22:28;6.30;99.90
4366;DHT22;2196;47.422;9.656;2023-04-16T07:24:55;6.40;99.90
4366;DHT22;2196;47.422;9.656;2023-04-16T07:27:22;6.40;99.90
4366;DHT22;2196;47.422;9.656;2023-04-16T07:29:49;6.40;99.90
4366;DHT22;2196;47.422;9.656;2023-04-16T07:32:16;6.50;99.90
4366;DHT22;2196;47.422;9.656;2023-04-16T07:34:43;6.50;99.90
4366;DHT22;2196;47.422;9.656;2023-04-16T07:37:10;6.50;99.90
4366;DHT22;2196;47.422;9.656;2023-04-16T07:39:38;6.40;99.90
4366;DHT22;2196;47.422;9.656;2023-04-16T07:42:05;6.40;99.90
4366;DHT22;2196;47.422;9.656;2023-04-16T07:44:32;6.50;99.90
4366;DHT22;2196;47.422;9.656;2023-04-16T07:46:59;6.50;99.90
4366;DHT22;2196;47.422;9.656;2023-04-16T07:49:26;6.50;99.90
4366;DHT22;2196;47.422;9.656;2023-04-16T07:51:53;6.40;99.90
4366;DHT22;2196;47.422;9.656;2023-04-16T07:54:20;6.40;99.90
4366;DHT22;2196;47.422;9.656;2023-04-16T07:56:49;6.30;99.90
4366;DHT22;2196;47.422;9.656;2023-04-16T07:59:16;6.40;99.90
4366;DHT22;2196;47.422;9.656;2023-04-16T08:01:43;6.50;99.90
4366;DHT22;2196;47.422;9.656;2023-04-16T08:04:10;6.50;99.90
4366;DHT22;2196;47.422;9.656;2023-04-16T08:06:38;6.30;99.90
4366;DHT22;2196;47.422;9.656;2023-04-16T08:09:05;6.40;99.90
4366;DHT22;2196;47.422;9.656;2023-04-16T08:11:32;6.30;99.90
4366;DHT22;2196;47.422;9.656;2023-04-16T08:14:01;6.40;99.90
4366;DHT22;2196;47.422;9.656;2023-04-16T08:16:28;6.50;99.90
4366;DHT22;2196;47.422;9.656;2023-04-16T08:18:55;6.40;99.90
4366;DHT22;2196;47.422;9.656;2023-04-16T08:21:22;6.50;99.90
4366;DHT22;2196;47.422;9.656;2023-04-16T08:23:49;6.60;99.90
4366;DHT22;2196;47.422;9.656;2023-04-16T08:26:16;6.60;99.90
4366;DHT22;2196;47.422;9.656;2023-04-16T08:28:43;6.60;99.90
4366;DHT22;2196;47.422;9.656;2023-04-16T08:31:12;6.60;99.90
4366;DHT22;2196;47.422;9.656;2023-04-16T08:33:40;6.60;99.90
4366;DHT22;2196;47.422;9.656;2023-04-16T08:36:08;6.50;99.90
4366;DHT22;2196;47.422;9.656;2023-04-16T08:38:35;6.50;99.90
4366;DHT22;2196;47.422;9.656;2023-04-16T08:41:05;6.50;99.90
4366;DHT22;2196;47.422;9.656;2023-04-16T08:43:33;6.60;99.90
4366;DHT22;2196;47.422;9.656;2023-04-16T08:46:05;6.70;99.90
4366;DHT22;2196;47.422;9.656;2023-04-16T08:48:37;6.70;99.90
4366;DHT22;2196;47.422;9.656;2023-04-16T08:51:09;6.70;99.90
4366;DHT22;2196;47.422;9.656;2023-04-16T08:53:42;6.70;99.90
4366;DHT22;2196;47.422;9.656;2023-04-16T08:56:15;6.80;99.90
4366;DHT22;2196;47.422;9.656;2023-04-16T08:58:46;7.00;99.90
4366;DHT22;2196;47.422;9.656;2023-04-16T09:01:15;7.10;99.90
4366;DHT22;2196;47.422;9.656;2023-04-16T09:03:46;7.10;99.90
4366;DHT22;2196;47.422;9.656;2023-04-16T09:06:14;7.00;99.90
4366;DHT22;2196;47.422;9.656;2023-04-16T09:08:43;6.90;99.90
4366;DHT22;2196;47.422;9.656;2023-04-16T09:11:11;7.00;99.90
4366;DHT22;2196;47.422;9.656;2023-04-16T09:13:38;6.90;99.90
4366;DHT22;2196;47.422;9.656;2023-04-16T09:16:07;6.80;99.90
4366;DHT22;2196;47.422;9.656;2023-04-16T09:18:34;6.90;99.90
4366;DHT22;2196;47.422;9.656;2023-04-16T09:21:03;6.90;99.90
4366;DHT22;2196;47.422;9.656;2023-04-16T09:23:30;6.90;99.90
4366;DHT22;2196;47.422;9.656;2023-04-16T09:25:58;6.90;99.90
4366;DHT22;2196;47.422;9.656;2023-04-16T09:28:42;6.90;99.90
4366;DHT22;2196;47.422;9.656;2023-04-16T09:31:13;6.90;99.90
4366;DHT22;2196;47.422;9.656;2023-04-16T09:33:41;7.00;99.90
4366;DHT22;2196;47.422;9.656;2023-04-16T09:36:10;7.00;99.90
4366;DHT22;2196;47.422;9.656;2023-04-16T09:38:47;7.00;99.90
4366;DHT22;2196;47.422;9.656;2023-04-16T09:41:14;7.00;99.90
4366;DHT22;2196;47.422;9.656;2023-04-16T09:43:49;7.10;99.90
4366;DHT22;2196;47.422;9.656;2023-04-16T09:46:20;7.00;99.90
4366;DHT22;2196;47.422;9.656;2023-04-16T09:48:47;7.00;99.90
4366;DHT22;2196;47.422;9.656;2023-04-16T09:51:15;7.00;99.90
4366;DHT22;2196;47.422;9.656;2023-04-16T09:53:42;7.10;99.90
4366;DHT22;2196;47.422;9.656;2023-04-16T09:56:11;7.20;99.90
4366;DHT22;2196;47.422;9.656;2023-04-16T09:58:41;7.20;99.90
4366;DHT22;2196;47.422;9.656;2023-04-16T10:01:10;7.20;99.90
4366;DHT22;2196;47.422;9.656;2023-04-16T10:03:41;7.30;99.90
4366;DHT22;2196;47.422;9.656;2023-04-16T10:06:15;7.30;99.90
4366;DHT22;2196;47.422;9.656;2023-04-16T10:08:43;7.40;99.90
4366;DHT22;2196;47.422;9.656;2023-04-16T10:11:12;7.40;99.90
4366;DHT22;2196;47.422;9.656;2023-04-16T10:13:41;7.30;99.90
4366;DHT22;2196;47.422;9.656;2023-04-16T10:16:08;7.50;99.90
4366;DHT22;2196;47.422;9.656;2023-04-16T10:18:39;7.40;99.90
4366;DHT22;2196;47.422;9.656;2023-04-16T10:21:06;7.40;99.90
4366;DHT22;2196;47.422;9.656;2023-04-16T10:23:38;7.50;99.90
4366;DHT22;2196;47.422;9.656;2023-04-16T10:26:05;7.60;99.90
4366;DHT22;2196;47.422;9.656;2023-04-16T10:28:32;7.50;99.90
4366;DHT22;2196;47.422;9.656;2023-04-16T10:31:02;7.60;99.90
4366;DHT22;2196;47.422;9.656;2023-04-16T10:33:32;7.70;99.90
4366;DHT22;2196;47.422;9.656;2023-04-16T10:36:07;7.70;99.90
4366;DHT22;2196;47.422;9.656;2023-04-16T10:38:39;7.70;99.90
4366;DHT22;2196;47.422;9.656;2023-04-16T10:41:09;7.80;99.90
4366;DHT22;2196;47.422;9.656;2023-04-16T10:43:39;7.90;99.90
4366;DHT22;2196;47.422;9.656;2023-04-16T10:46:21;8.00;99.90
4366;DHT22;2196;47.422;9.656;2023-04-16T10:48:51;8.10;99.90
4366;DHT22;2196;47.422;9.656;2023-04-16T10:51:27;8.20;99.90
4366;DHT22;2196;47.422;9.656;2023-04-16T10:54:02;8.20;99.90
4366;DHT22;2196;47.422;9.656;2023-04-16T10:56:32;8.30;99.90
4366;DHT22;2196;47.422;9.656;2023-04-16T10:58:59;8.30;99.90
4366;DHT22;2196;47.422;9.656;2023-04-16T11:01:30;8.40;99.90
4366;DHT22;2196;47.422;9.656;2023-04-16T11:03:58;8.50;99.90
4366;DHT22;2196;47.422;9.656;2023-04-16T11:06:27;8.40;99.90
4366;DHT22;2196;47.422;9.656;2023-04-16T11:08:57;8.40;99.90
4366;DHT22;2196;47.422;9.656;2023-04-16T11:11:25;8.40;99.90
4366;DHT22;2196;47.422;9.656;2023-04-16T11:13:54;8.40;99.90
4366;DHT22;2196;47.422;9.656;2023-04-16T11:16:24;8.40;99.90
4366;DHT22;2196;47.422;9.656;2023-04-16T11:18:51;8.30;99.90
4366;DHT22;2196;47.422;9.656;2023-04-16T11:21:19;8.30;99.90
4366;DHT22;2196;47.422;9.656;2023-04-16T11:23:47;8.30;99.90
4366;DHT22;2196;47.422;9.656;2023-04-16T11:26:27;8.30;99.90
4366;DHT22;2196;47.422;9.656;2023-04-16T11:28:55;8.30;99.90
4366;DHT22;2196;47.422;9.656;2023-04-16T11:31:22;8.20;99.90
4366;DHT22;2196;47.422;9.656;2023-04-16T11:33:51;8.20;99.90
4366;DHT22;2196;47.422;9.656;2023-04-16T11:36:18;8.20;99.90
4366;DHT22;2196;47.422;9.656;2023-04-16T11:38:46;8.30;99.90
4366;DHT22;2196;47.422;9.656;2023-04-16T11:41:18;8.20;99.90
4366;DHT22;2196;47.422;9.656;2023-04-16T11:43:47;8.30;99.90
4366;DHT22;2196;47.422;9.656;2023-04-16T11:46:14;8.30;99.90
4366;DHT22;2196;47.422;9.656;2023-04-16T11:48:45;8.30;99.90
4366;DHT22;2196;47.422;9.656;2023-04-16T11:51:12;8.20;99.90
4366;DHT22;2196;47.422;9.656;2023-04-16T11:53:45;8.30;99.90
4366;DHT22;2196;47.422;9.656;2023-04-16T11:56:13;8.30;99.90
4366;DHT22;2196;47.422;9.656;2023-04-16T11:58:40;8.50;99.90
4366;DHT22;2196;47.422;9.656;2023-04-16T12:01:09;8.50;99.90
4366;DHT22;2196;47.422;9.656;2023-04-16T12:03:37;8.40;99.90
4366;DHT22;2196;47.422;9.656;2023-04-16T12:06:10;8.40;99.90
4366;DHT22;2196;47.422;9.656;2023-04-16T12:08:39;8.50;99.90
4366;DHT22;2196;47.422;9.656;2023-04-16T12:11:06;8.60;99.90
4366;DHT22;2196;47.422;9.656;2023-04-16T12:13:33;8.60;99.90
4366;DHT22;2196;47.422;9.656;2023-04-16T12:16:17;8.40;99.90
4366;DHT22;2196;47.422;9.656;2023-04-16T12:19:00;8.40;99.90
4366;DHT22;2196;47.422;9.656;2023-04-16T12:21:41;8.40;99.90
4366;DHT22;2196;47.422;9.656;2023-04-16T12:24:11;8.40;99.90
4366;DHT22;2196;47.422;9.656;2023-04-16T12:26:42;8.30;99.90
4366;DHT22;2196;47.422;9.656;2023-04-16T12:29:20;8.30;99.90
4366;DHT22;2196;47.422;9.656;2023-04-16T12:31:50;8.30;99.90
4366;DHT22;2196;47.422;9.656;2023-04-16T12:34:18;8.30;99.90
4366;DHT22;2196;47.422;9.656;2023-04-16T12:36:46;8.30;99.90
4366;DHT22;2196;47.422;9.656;2023-04-16T12:39:14;8.40;99.90
4366;DHT22;2196;47.422;9.656;2023-04-16T12:41:42;8.30;99.90
4366;DHT22;2196;47.422;9.656;2023-04-16T12:44:11;8.30;99.90
4366;DHT22;2196;47.422;9.656;2023-04-16T12:46:43;8.20;99.90
4366;DHT22;2196;47.422;9.656;2023-04-16T12:49:12;8.20;99.90
4366;DHT22;2196;47.422;9.656;2023-04-16T12:51:39;8.20;99.90
4366;DHT22;2196;47.422;9.656;2023-04-16T12:54:06;8.10;99.90
4366;DHT22;2196;47.422;9.656;2023-04-16T12:56:34;8.10;99.90
4366;DHT22;2196;47.422;9.656;2023-04-16T12:59:01;8.20;99.90
4366;DHT22;2196;47.422;9.656;2023-04-16T13:01:28;8.20;99.90
4366;DHT22;2196;47.422;9.656;2023-04-16T13:03:55;8.20;99.90
4366;DHT22;2196;47.422;9.656;2023-04-16T13:06:24;8.20;99.90
4366;DHT22;2196;47.422;9.656;2023-04-16T13:08:51;8.30;99.90
4366;DHT22;2196;47.422;9.656;2023-04-16T13:11:18;8.30;99.90
4366;DHT22;2196;47.422;9.656;2023-04-16T13:13:45;8.30;99.90
4366;DHT22;2196;47.422;9.656;2023-04-16T13:16:12;8.30;99.90
4366;DHT22;2196;47.422;9.656;2023-04-16T13:18:42;8.30;99.90
4366;DHT22;2196;47.422;9.656;2023-04-16T13:21:09;8.30;99.90
4366;DHT22;2196;47.422;9.656;2023-04-16T13:23:38;8.30;99.90
4366;DHT22;2196;47.422;9.656;2023-04-16T13:26:05;8.40;99.90
4366;DHT22;2196;47.422;9.656;2023-04-16T13:28:32;8.40;99.90
4366;DHT22;2196;47.422;9.656;2023-04-16T13:30:59;8.40;99.90
4366;DHT22;2196;47.422;9.656;2023-04-16T13:33:26;8.30;99.90
4366;DHT22;2196;47.422;9.656;2023-04-16T13:35:53;8.30;99.90
4366;DHT22;2196;47.422;9.656;2023-04-16T13:38:20;8.40;99.90
4366;DHT22;2196;47.422;9.656;2023-04-16T13:47:45;8.40;99.90
4366;DHT22;2196;47.422;9.656;2023-04-16T13:50:12;8.50;99.90
4366;DHT22;2196;47.422;9.656;2023-04-16T13:52:39;8.50;99.90
4366;DHT22;2196;47.422;9.656;2023-04-16T13:55:07;8.50;99.90
4366;DHT22;2196;47.422;9.656;2023-04-16T13:57:34;8.40;99.90
4366;DHT22;2196;47.422;9.656;2023-04-16T14:00:02;8.30;99.90
4366;DHT22;2196;47.422;9.656;2023-04-16T14:02:29;8.30;99.90
4366;DHT22;2196;47.422;9.656;2023-04-16T14:04:57;8.30;99.90
4366;DHT22;2196;47.422;9.656;2023-04-16T14:07:24;8.20;99.90
4366;DHT22;2196;47.422;9.656;2023-04-16T14:09:52;8.20;99.90
4366;DHT22;2196;47.422;9.656;2023-04-16T14:35:54;8.50;99.90
4366;DHT22;2196;47.422;9.656;2023-04-16T15:08:37;8.70;99.90
4366;DHT22;2196;47.422;9.656;2023-04-16T15:11:09;8.70;99.90
4366;DHT22;2196;47.422;9.656;2023-04-16T15:13:41;8.60;99.90
4366;DHT22;2196;47.422;9.656;2023-04-16T15:16:08;8.60;99.90
4366;DHT22;2196;47.422;9.656;2023-04-16T15:18:40;8.60;99.90
4366;DHT22;2196;47.422;9.656;2023-04-16T15:21:07;8.60;99.90
4366;DHT22;2196;47.422;9.656;2023-04-16T15:23:34;8.40;99.90
4366;DHT22;2196;47.422;9.656;2023-04-16T15:26:03;8.30;99.90
